sensor_id;sensor_type;location;lat;lon;timestamp;pressure;altitude;pressure_sealevel;temperature;humidity
76858;BME280;65830;0.000;0.000;2023-07-13T00:00:32;99753.66;;;26.88;53.30
76858;BME280;65830;0.000;0.000;2023-07-13T00:03:06;99759.72;;;26.79;53.57
76858;BME280;65830;0.000;0.000;2023-07-13T00:05:56;99751.38;;;26.68;53.36
76858;BME280;65830;0.000;0.000;2023-07-13T00:08:34;99759.53;;;26.68;53.54
76858;BME280;65830;0.000;0.000;2023-07-13T00:11:09;99757.06;;;26.67;54.73
76858;BME280;65830;0.000;0.000;2023-07-13T00:13:51;99757.16;;;26.72;54.12
76858;BME280;65830;0.000;0.000;2023-07-13T00:16:45;99757.75;;;26.74;54.29
76858;BME280;65830;0.000;0.000;2023-07-13T00:19:22;99754.56;;;26.53;54.10
76858;BME280;65830;0.000;0.000;2023-07-13T00:21:56;99753.53;;;26.54;53.72
76858;BME280;65830;0.000;0.000;2023-07-13T00:27:15;99751.19;;;26.58;54.73
76858;BME280;65830;0.000;0.000;2023-07-13T00:30:11;99745.94;;;26.68;53.32
76858;BME280;65830;0.000;0.000;2023-07-13T00:32:45;99744.59;;;26.71;54.17
76858;BME280;65830;0.000;0.000;2023-07-13T00:35:22;99741.78;;;26.66;53.90
76858;BME280;65830;0.000;0.000;2023-07-13T00:38:02;99743.84;;;26.59;54.03
76858;BME280;65830;0.000;0.000;2023-07-13T00:40:29;99733.53;;;26.61;54.75
76858;BME280;65830;0.000;0.000;2023-07-13T00:43:27;99732.56;;;26.55;54.42
76858;BME280;65830;0.000;0.000;2023-07-13T00:49:05;99731.16;;;26.52;53.83
76858;BME280;65830;0.000;0.000;2023-07-13T00:51:52;99733.63;;;26.54;53.10
76858;BME280;65830;0.000;0.000;2023-07-13T00:54:23;99732.84;;;26.42;53.29
76858;BME280;65830;0.000;0.000;2023-07-13T00:57:11;99729.78;;;26.38;53.41
76858;BME280;65830;0.000;0.000;2023-07-13T01:00:00;99724.69;;;26.42;53.27
76858;BME280;65830;0.000;0.000;2023-07-13T01:02:46;99731.56;;;26.44;53.87
76858;BME280;65830;0.000;0.000;2023-07-13T01:05:32;99726.13;;;26.44;54.25
76858;BME280;65830;0.000;0.000;2023-07-13T01:11:47;99726.19;;;26.49;54.44
76858;BME280;65830;0.000;0.000;2023-07-13T01:14:18;99713.09;;;26.58;53.66
76858;BME280;65830;0.000;0.000;2023-07-13T01:16:53;99713.69;;;26.48;52.61
76858;BME280;65830;0.000;0.000;2023-07-13T01:22:08;99726.25;;;26.26;52.53
76858;BME280;65830;0.000;0.000;2023-07-13T01:24:46;99720.75;;;26.21;52.03
76858;BME280;65830;0.000;0.000;2023-07-13T01:27:21;99724.03;;;26.23;52.81
76858;BME280;65830;0.000;0.000;2023-07-13T01:29:56;99729.13;;;26.19;52.57
76858;BME280;65830;0.000;0.000;2023-07-13T01:32:47;99729.28;;;26.01;52.46
76858;BME280;65830;0.000;0.000;2023-07-13T01:35:18;99725.47;;;25.66;53.01
76858;BME280;65830;0.000;0.000;2023-07-13T01:37:47;99724.19;;;25.57;53.49
76858;BME280;65830;0.000;0.000;2023-07-13T01:40:37;99731.03;;;25.60;53.81
76858;BME280;65830;0.000;0.000;2023-07-13T01:43:19;99732.44;;;25.62;53.64
76858;BME280;65830;0.000;0.000;2023-07-13T01:45:51;99725.63;;;25.71;53.80
76858;BME280;65830;0.000;0.000;2023-07-13T01:48:22;99727.25;;;25.72;54.01
76858;BME280;65830;0.000;0.000;2023-07-13T01:50:59;99727.50;;;25.71;53.68
76858;BME280;65830;0.000;0.000;2023-07-13T01:53:48;99726.56;;;25.65;53.62
76858;BME280;65830;0.000;0.000;2023-07-13T01:56:25;99731.50;;;25.68;55.45
76858;BME280;65830;0.000;0.000;2023-07-13T01:58:54;99736.72;;;25.58;53.76
76858;BME280;65830;0.000;0.000;2023-07-13T02:01:29;99742.63;;;25.55;54.35
76858;BME280;65830;0.000;0.000;2023-07-13T02:04:03;99744.50;;;25.54;54.57
76858;BME280;65830;0.000;0.000;2023-07-13T02:06:36;99740.50;;;25.57;55.13
76858;BME280;65830;0.000;0.000;2023-07-13T02:09:07;99741.78;;;25.54;55.12
76858;BME280;65830;0.000;0.000;2023-07-13T02:11:37;99741.41;;;25.51;55.24
76858;BME280;65830;0.000;0.000;2023-07-13T02:14:13;99758.31;;;25.53;55.20
76858;BME280;65830;0.000;0.000;2023-07-13T02:17:06;99748.16;;;25.48;55.34
76858;BME280;65830;0.000;0.000;2023-07-13T02:19:44;99750.41;;;25.51;55.64
76858;BME280;65830;0.000;0.000;2023-07-13T02:22:17;99751.78;;;25.30;55.10
76858;BME280;65830;0.000;0.000;2023-07-13T02:24:58;99752.44;;;25.14;55.65
76858;BME280;65830;0.000;0.000;2023-07-13T02:27:35;99755.09;;;25.32;55.55
76858;BME280;65830;0.000;0.000;2023-07-13T02:30:06;99764.22;;;25.38;56.52
76858;BME280;65830;0.000;0.000;2023-07-13T02:32:48;99760.06;;;25.35;55.41
76858;BME280;65830;0.000;0.000;2023-07-13T02:35:18;99768.81;;;25.38;55.83
76858;BME280;65830;0.000;0.000;2023-07-13T02:38:06;99769.53;;;25.45;55.53
76858;BME280;65830;0.000;0.000;2023-07-13T02:40:43;99763.75;;;25.53;55.67
76858;BME280;65830;0.000;0.000;2023-07-13T02:43:14;99757.47;;;25.41;56.24
76858;BME280;65830;0.000;0.000;2023-07-13T02:45:53;99761.47;;;25.26;56.95
76858;BME280;65830;0.000;0.000;2023-07-13T02:48:24;99762.66;;;25.30;56.51
76858;BME280;65830;0.000;0.000;2023-07-13T02:50:59;99758.56;;;25.40;57.13
76858;BME280;65830;0.000;0.000;2023-07-13T02:53:44;99771.31;;;25.39;55.23
76858;BME280;65830;0.000;0.000;2023-07-13T02:59:09;99784.63;;;25.41;54.86
76858;BME280;65830;0.000;0.000;2023-07-13T03:01:52;99778.84;;;25.25;54.88
76858;BME280;65830;0.000;0.000;2023-07-13T03:04:48;99773.34;;;25.13;55.42
76858;BME280;65830;0.000;0.000;2023-07-13T03:07:14;99777.81;;;25.08;55.55
76858;BME280;65830;0.000;0.000;2023-07-13T03:10:09;99776.03;;;25.02;55.67
76858;BME280;65830;0.000;0.000;2023-07-13T03:12:52;99776.94;;;24.95;56.26
76858;BME280;65830;0.000;0.000;2023-07-13T03:15:27;99773.69;;;24.87;55.47
76858;BME280;65830;0.000;0.000;2023-07-13T03:18:07;99779.00;;;24.82;55.60
76858;BME280;65830;0.000;0.000;2023-07-13T03:20:40;99771.53;;;24.77;56.26
76858;BME280;65830;0.000;0.000;2023-07-13T03:23:16;99774.72;;;24.74;55.91
76858;BME280;65830;0.000;0.000;2023-07-13T03:25:47;99767.78;;;24.78;56.08
76858;BME280;65830;0.000;0.000;2023-07-13T03:28:14;99762.56;;;24.76;55.54
76858;BME280;65830;0.000;0.000;2023-07-13T03:30:58;99763.66;;;24.87;55.60
76858;BME280;65830;0.000;0.000;2023-07-13T03:36:40;99762.75;;;24.93;54.97
76858;BME280;65830;0.000;0.000;2023-07-13T03:40:02;99763.38;;;24.95;54.76
76858;BME280;65830;0.000;0.000;2023-07-13T03:43:26;99767.72;;;24.96;55.67
76858;BME280;65830;0.000;0.000;2023-07-13T03:46:26;99763.03;;;25.04;55.23
76858;BME280;65830;0.000;0.000;2023-07-13T03:48:53;99756.09;;;25.08;54.22
76858;BME280;65830;0.000;0.000;2023-07-13T03:51:39;99766.00;;;25.14;55.84
76858;BME280;65830;0.000;0.000;2023-07-13T03:54:18;99760.47;;;25.21;54.78
76858;BME280;65830;0.000;0.000;2023-07-13T03:56:48;99766.53;;;25.23;55.96
76858;BME280;65830;0.000;0.000;2023-07-13T03:59:18;99770.91;;;25.24;54.00
76858;BME280;65830;0.000;0.000;2023-07-13T04:01:53;99775.13;;;25.20;53.61
76858;BME280;65830;0.000;0.000;2023-07-13T04:04:30;99773.34;;;25.13;53.97
76858;BME280;65830;0.000;0.000;2023-07-13T04:07:02;99778.47;;;25.03;53.85
76858;BME280;65830;0.000;0.000;2023-07-13T04:09:36;99775.66;;;24.98;53.97
76858;BME280;65830;0.000;0.000;2023-07-13T04:12:30;99780.75;;;25.06;53.59
76858;BME280;65830;0.000;0.000;2023-07-13T04:18:07;99785.94;;;25.08;54.72
76858;BME280;65830;0.000;0.000;2023-07-13T04:20:43;99784.28;;;25.07;54.89
76858;BME280;65830;0.000;0.000;2023-07-13T04:23:09;99785.81;;;25.03;55.39
76858;BME280;65830;0.000;0.000;2023-07-13T04:26:00;99784.47;;;24.93;55.35
76858;BME280;65830;0.000;0.000;2023-07-13T04:28:38;99791.88;;;24.86;55.73
76858;BME280;65830;0.000;0.000;2023-07-13T04:31:25;99793.84;;;24.79;56.23
76858;BME280;65830;0.000;0.000;2023-07-13T04:34:04;99795.41;;;24.87;56.16
76858;BME280;65830;0.000;0.000;2023-07-13T04:36:41;99798.03;;;24.93;56.59
76858;BME280;65830;0.000;0.000;2023-07-13T04:39:14;99797.47;;;25.03;55.83
76858;BME280;65830;0.000;0.000;2023-07-13T04:42:12;99805.56;;;25.10;56.45
76858;BME280;65830;0.000;0.000;2023-07-13T04:44:53;99802.50;;;25.18;55.99
76858;BME280;65830;0.000;0.000;2023-07-13T04:47:30;99805.63;;;25.22;55.87
76858;BME280;65830;0.000;0.000;2023-07-13T04:50:22;99800.91;;;25.29;56.42
76858;BME280;65830;0.000;0.000;2023-07-13T04:53:15;99807.06;;;25.36;56.73
76858;BME280;65830;0.000;0.000;2023-07-13T04:56:19;99801.41;;;25.38;55.01
76858;BME280;65830;0.000;0.000;2023-07-13T04:58:54;99806.34;;;25.41;54.81
76858;BME280;65830;0.000;0.000;2023-07-13T05:01:32;99804.84;;;25.45;53.96
76858;BME280;65830;0.000;0.000;2023-07-13T05:04:07;99804.50;;;25.41;53.76
76858;BME280;65830;0.000;0.000;2023-07-13T05:06:48;99794.81;;;25.45;53.85
76858;BME280;65830;0.000;0.000;2023-07-13T05:09:30;99802.41;;;25.55;54.12
76858;BME280;65830;0.000;0.000;2023-07-13T05:12:11;99799.34;;;25.63;53.21
76858;BME280;65830;0.000;0.000;2023-07-13T05:14:46;99804.41;;;25.60;52.98
76858;BME280;65830;0.000;0.000;2023-07-13T05:17:19;99802.72;;;25.59;53.23
76858;BME280;65830;0.000;0.000;2023-07-13T05:19:47;99818.56;;;25.62;53.49
76858;BME280;65830;0.000;0.000;2023-07-13T05:22:26;99806.53;;;25.69;53.15
76858;BME280;65830;0.000;0.000;2023-07-13T05:25:06;99809.13;;;25.64;52.56
76858;BME280;65830;0.000;0.000;2023-07-13T05:28:01;99807.59;;;25.68;52.91
76858;BME280;65830;0.000;0.000;2023-07-13T05:30:44;99810.09;;;25.70;52.30
76858;BME280;65830;0.000;0.000;2023-07-13T05:33:36;99811.63;;;25.77;53.04
76858;BME280;65830;0.000;0.000;2023-07-13T05:36:17;99806.91;;;25.85;52.65
76858;BME280;65830;0.000;0.000;2023-07-13T05:39:10;99803.47;;;25.89;52.90
76858;BME280;65830;0.000;0.000;2023-07-13T05:41:53;99814.25;;;25.96;52.54
76858;BME280;65830;0.000;0.000;2023-07-13T05:44:23;99814.97;;;26.03;52.81
76858;BME280;65830;0.000;0.000;2023-07-13T05:47:03;99809.06;;;26.06;51.03
76858;BME280;65830;0.000;0.000;2023-07-13T05:49:31;99808.13;;;26.01;51.74
76858;BME280;65830;0.000;0.000;2023-07-13T05:52:07;99813.31;;;26.02;51.71
76858;BME280;65830;0.000;0.000;2023-07-13T05:54:43;99804.91;;;26.04;51.64
76858;BME280;65830;0.000;0.000;2023-07-13T06:00:26;99812.13;;;26.22;51.58
76858;BME280;65830;0.000;0.000;2023-07-13T06:03:01;99806.81;;;26.27;51.11
76858;BME280;65830;0.000;0.000;2023-07-13T06:05:48;99799.69;;;26.38;51.33
76858;BME280;65830;0.000;0.000;2023-07-13T06:08:22;99802.38;;;26.49;51.17
76858;BME280;65830;0.000;0.000;2023-07-13T06:11:12;99812.59;;;26.42;50.42
76858;BME280;65830;0.000;0.000;2023-07-13T06:17:26;99818.81;;;26.66;50.73
76858;BME280;65830;0.000;0.000;2023-07-13T06:19:59;99820.00;;;26.70;50.09
76858;BME280;65830;0.000;0.000;2023-07-13T06:22:45;99815.72;;;26.74;49.74
76858;BME280;65830;0.000;0.000;2023-07-13T06:25:22;99819.69;;;26.84;49.37
76858;BME280;65830;0.000;0.000;2023-07-13T06:28:39;99804.63;;;26.93;48.63
76858;BME280;65830;0.000;0.000;2023-07-13T06:31:13;99809.69;;;27.01;48.33
76858;BME280;65830;0.000;0.000;2023-07-13T06:33:54;99804.69;;;27.10;47.76
76858;BME280;65830;0.000;0.000;2023-07-13T06:36:31;99801.81;;;27.17;47.96
76858;BME280;65830;0.000;0.000;2023-07-13T06:39:09;99803.75;;;27.33;47.55
76858;BME280;65830;0.000;0.000;2023-07-13T06:42:06;99788.19;;;27.45;47.22
76858;BME280;65830;0.000;0.000;2023-07-13T06:44:35;99788.75;;;27.47;45.92
76858;BME280;65830;0.000;0.000;2023-07-13T06:47:05;99789.97;;;27.57;46.28
76858;BME280;65830;0.000;0.000;2023-07-13T06:49:43;99793.13;;;27.65;45.26
76858;BME280;65830;0.000;0.000;2023-07-13T06:52:21;99791.06;;;27.72;45.58
76858;BME280;65830;0.000;0.000;2023-07-13T06:54:55;99792.28;;;27.82;46.40
76858;BME280;65830;0.000;0.000;2023-07-13T06:57:41;99785.88;;;27.88;45.65
76858;BME280;65830;0.000;0.000;2023-07-13T07:00:19;99791.72;;;27.97;46.02
76858;BME280;65830;0.000;0.000;2023-07-13T07:02:52;99784.09;;;27.99;46.95
76858;BME280;65830;0.000;0.000;2023-07-13T07:05:18;99789.31;;;28.00;46.04
76858;BME280;65830;0.000;0.000;2023-07-13T07:07:52;99792.06;;;28.22;44.33
76858;BME280;65830;0.000;0.000;2023-07-13T07:13:21;99791.81;;;28.24;45.37
76858;BME280;65830;0.000;0.000;2023-07-13T07:15:55;99794.06;;;28.27;45.88
76858;BME280;65830;0.000;0.000;2023-07-13T07:18:38;99794.06;;;28.27;45.87
76858;BME280;65830;0.000;0.000;2023-07-13T07:21:38;99787.22;;;28.46;45.06
76858;BME280;65830;0.000;0.000;2023-07-13T07:24:32;99794.47;;;28.58;43.78
76858;BME280;65830;0.000;0.000;2023-07-13T07:27:05;99787.25;;;28.68;43.06
76858;BME280;65830;0.000;0.000;2023-07-13T07:29:41;99789.66;;;28.65;45.29
76858;BME280;65830;0.000;0.000;2023-07-13T07:36:09;99786.47;;;28.73;44.70
76858;BME280;65830;0.000;0.000;2023-07-13T07:38:59;99789.75;;;28.75;44.78
76858;BME280;65830;0.000;0.000;2023-07-13T07:45:03;99773.56;;;29.18;42.56
76858;BME280;65830;0.000;0.000;2023-07-13T07:47:45;99779.41;;;29.31;42.65
76858;BME280;65830;0.000;0.000;2023-07-13T07:50:28;99778.34;;;29.33;43.04
76858;BME280;65830;0.000;0.000;2023-07-13T07:53:04;99770.53;;;29.46;43.18
76858;BME280;65830;0.000;0.000;2023-07-13T07:55:43;99776.09;;;29.57;41.88
76858;BME280;65830;0.000;0.000;2023-07-13T07:58:15;99774.22;;;29.62;41.23
76858;BME280;65830;0.000;0.000;2023-07-13T08:00:53;99767.78;;;29.79;41.55
76858;BME280;65830;0.000;0.000;2023-07-13T08:03:49;99772.16;;;29.75;41.52
76858;BME280;65830;0.000;0.000;2023-07-13T08:06:26;99768.69;;;29.57;42.94
76858;BME280;65830;0.000;0.000;2023-07-13T08:08:57;99762.56;;;29.40;43.30
76858;BME280;65830;0.000;0.000;2023-07-13T08:11:46;99760.59;;;29.67;41.06
76858;BME280;65830;0.000;0.000;2023-07-13T08:14:22;99759.00;;;29.72;42.21
76858;BME280;65830;0.000;0.000;2023-07-13T08:16:52;99759.59;;;29.79;41.40
76858;BME280;65830;0.000;0.000;2023-07-13T08:19:21;99752.25;;;29.84;42.03
76858;BME280;65830;0.000;0.000;2023-07-13T08:21:50;99757.97;;;29.83;41.94
76858;BME280;65830;0.000;0.000;2023-07-13T08:24:21;99751.19;;;29.90;40.68
76858;BME280;65830;0.000;0.000;2023-07-13T08:26:55;99752.44;;;30.15;39.57
76858;BME280;65830;0.000;0.000;2023-07-13T08:29:24;99747.94;;;29.99;41.73
76858;BME280;65830;0.000;0.000;2023-07-13T08:32:05;99747.16;;;30.03;41.39
76858;BME280;65830;0.000;0.000;2023-07-13T08:34:37;99752.09;;;30.06;40.49
76858;BME280;65830;0.000;0.000;2023-07-13T08:37:15;99749.88;;;30.51;40.17
76858;BME280;65830;0.000;0.000;2023-07-13T08:39:47;99748.75;;;30.47;39.83
76858;BME280;65830;0.000;0.000;2023-07-13T08:47:56;99737.75;;;30.32;40.45
76858;BME280;65830;0.000;0.000;2023-07-13T08:55:03;99714.16;;;30.25;39.87
76858;BME280;65830;0.000;0.000;2023-07-13T08:57:15;99721.72;;;30.76;38.87
76858;BME280;65830;0.000;0.000;2023-07-13T08:59:48;99725.31;;;30.87;37.73
76858;BME280;65830;0.000;0.000;2023-07-13T09:04:59;99724.41;;;30.51;40.07
76858;BME280;65830;0.000;0.000;2023-07-13T09:16:46;99707.41;;;30.43;40.11
76858;BME280;65830;0.000;0.000;2023-07-13T09:19:31;99706.25;;;30.29;40.44
76858;BME280;65830;0.000;0.000;2023-07-13T09:22:26;99703.06;;;30.53;39.19
76858;BME280;65830;0.000;0.000;2023-07-13T09:25:11;99699.59;;;31.08;35.83
76858;BME280;65830;0.000;0.000;2023-07-13T09:27:57;99702.34;;;31.55;36.88
76858;BME280;65830;0.000;0.000;2023-07-13T09:30:33;99696.28;;;31.12;37.12
76858;BME280;65830;0.000;0.000;2023-07-13T09:33:10;99685.88;;;31.14;38.12
76858;BME280;65830;0.000;0.000;2023-07-13T09:36:54;99681.19;;;30.63;38.94
76858;BME280;65830;0.000;0.000;2023-07-13T09:44:38;99664.03;;;30.15;40.10
76858;BME280;65830;0.000;0.000;2023-07-13T09:47:15;99668.44;;;30.21;39.69
76858;BME280;65830;0.000;0.000;2023-07-13T09:49:47;99653.06;;;30.09;40.44
76858;BME280;65830;0.000;0.000;2023-07-13T09:52:16;99645.66;;;30.05;39.99
76858;BME280;65830;0.000;0.000;2023-07-13T09:54:51;99643.25;;;30.19;40.26
76858;BME280;65830;0.000;0.000;2023-07-13T09:57:51;99650.19;;;30.42;38.16
76858;BME280;65830;0.000;0.000;2023-07-13T10:00:30;99644.97;;;30.35;40.51
76858;BME280;65830;0.000;0.000;2023-07-13T10:05:58;99624.91;;;30.24;40.40
76858;BME280;65830;0.000;0.000;2023-07-13T10:09:01;99627.94;;;30.18;40.83
76858;BME280;65830;0.000;0.000;2023-07-13T10:11:31;99627.47;;;30.41;37.74
76858;BME280;65830;0.000;0.000;2023-07-13T10:14:24;99625.59;;;31.14;35.98
76858;BME280;65830;0.000;0.000;2023-07-13T10:17:02;99623.06;;;31.58;34.72
76858;BME280;65830;0.000;0.000;2023-07-13T10:19:40;99624.59;;;31.85;34.01
76858;BME280;65830;0.000;0.000;2023-07-13T10:25:02;99623.53;;;31.86;33.64
76858;BME280;65830;0.000;0.000;2023-07-13T10:27:32;99616.47;;;31.70;32.88
76858;BME280;65830;0.000;0.000;2023-07-13T10:30:14;99617.53;;;31.74;34.33
76858;BME280;65830;0.000;0.000;2023-07-13T10:32:43;99612.84;;;32.39;30.59
76858;BME280;65830;0.000;0.000;2023-07-13T10:35:35;99606.88;;;33.01;28.40
76858;BME280;65830;0.000;0.000;2023-07-13T10:38:23;99601.91;;;33.03;29.99
76858;BME280;65830;0.000;0.000;2023-07-13T10:41:03;99602.75;;;33.33;27.95
76858;BME280;65830;0.000;0.000;2023-07-13T10:43:42;99601.47;;;33.73;26.70
76858;BME280;65830;0.000;0.000;2023-07-13T10:46:17;99587.06;;;33.57;28.07
76858;BME280;65830;0.000;0.000;2023-07-13T10:48:57;99586.00;;;33.53;28.47
76858;BME280;65830;0.000;0.000;2023-07-13T10:52:00;99595.16;;;32.90;28.13
76858;BME280;65830;0.000;0.000;2023-07-13T10:57:28;99583.63;;;33.47;27.37
76858;BME280;65830;0.000;0.000;2023-07-13T11:02:38;99565.41;;;34.18;26.97
76858;BME280;65830;0.000;0.000;2023-07-13T11:08:20;99574.31;;;34.48;26.66
76858;BME280;65830;0.000;0.000;2023-07-13T11:24:51;99553.34;;;35.12;25.29
76858;BME280;65830;0.000;0.000;2023-07-13T11:27:36;99557.22;;;34.97;25.59
76858;BME280;65830;0.000;0.000;2023-07-13T11:33:10;99560.75;;;35.45;23.48
76858;BME280;65830;0.000;0.000;2023-07-13T11:36:17;99551.47;;;35.27;25.43
76858;BME280;65830;0.000;0.000;2023-07-13T11:39:01;99540.59;;;35.16;25.65
76858;BME280;65830;0.000;0.000;2023-07-13T11:41:37;99560.91;;;35.07;26.70
76858;BME280;65830;0.000;0.000;2023-07-13T11:44:41;99544.31;;;35.26;24.63
76858;BME280;65830;0.000;0.000;2023-07-13T11:47:24;99544.28;;;35.53;23.86
76858;BME280;65830;0.000;0.000;2023-07-13T11:49:59;99533.38;;;35.76;25.07
76858;BME280;65830;0.000;0.000;2023-07-13T11:52:36;99548.28;;;36.11;23.91
76858;BME280;65830;0.000;0.000;2023-07-13T11:55:18;99547.75;;;36.23;24.10
76858;BME280;65830;0.000;0.000;2023-07-13T11:58:18;99539.66;;;36.27;24.86
76858;BME280;65830;0.000;0.000;2023-07-13T12:01:42;99530.41;;;36.68;23.20
76858;BME280;65830;0.000;0.000;2023-07-13T12:07:24;99514.97;;;37.07;23.50
76858;BME280;65830;0.000;0.000;2023-07-13T12:10:00;99511.34;;;37.38;23.64
76858;BME280;65830;0.000;0.000;2023-07-13T12:15:38;99499.72;;;38.02;23.86
76858;BME280;65830;0.000;0.000;2023-07-13T12:18:28;99499.72;;;38.02;23.86
76858;BME280;65830;0.000;0.000;2023-07-13T12:20:57;99499.72;;;38.02;23.86
76858;BME280;65830;0.000;0.000;2023-07-13T12:23:44;99485.50;;;39.11;21.34
76858;BME280;65830;0.000;0.000;2023-07-13T12:26:18;99491.38;;;39.40;23.19
76858;BME280;65830;0.000;0.000;2023-07-13T12:29:13;99484.75;;;38.29;22.77
76858;BME280;65830;0.000;0.000;2023-07-13T12:31:49;99489.13;;;36.49;25.08
76858;BME280;65830;0.000;0.000;2023-07-13T12:34:24;99480.13;;;35.06;27.07
76858;BME280;65830;0.000;0.000;2023-07-13T12:36:59;99480.97;;;36.44;26.81
76858;BME280;65830;0.000;0.000;2023-07-13T12:42:22;99477.97;;;36.63;26.66
76858;BME280;65830;0.000;0.000;2023-07-13T12:47:47;99467.75;;;39.04;22.19
76858;BME280;65830;0.000;0.000;2023-07-13T12:50:29;99461.28;;;39.71;21.67
76858;BME280;65830;0.000;0.000;2023-07-13T12:52:59;99463.03;;;39.76;24.43
76858;BME280;65830;0.000;0.000;2023-07-13T12:55:48;99455.38;;;40.15;24.52
76858;BME280;65830;0.000;0.000;2023-07-13T13:01:22;99452.56;;;40.82;20.49
76858;BME280;65830;0.000;0.000;2023-07-13T13:04:02;99450.22;;;41.08;22.21
76858;BME280;65830;0.000;0.000;2023-07-13T13:07:08;99453.91;;;41.50;23.92
76858;BME280;65830;0.000;0.000;2023-07-13T13:09:53;99440.66;;;41.71;22.29
76858;BME280;65830;0.000;0.000;2023-07-13T13:12:29;99440.53;;;38.97;22.45
76858;BME280;65830;0.000;0.000;2023-07-13T13:15:11;99435.16;;;38.45;23.29
76858;BME280;65830;0.000;0.000;2023-07-13T13:17:59;99444.28;;;39.52;21.92
76858;BME280;65830;0.000;0.000;2023-07-13T13:20:33;99434.78;;;40.62;19.99
76858;BME280;65830;0.000;0.000;2023-07-13T13:23:20;99445.38;;;41.30;19.60
76858;BME280;65830;0.000;0.000;2023-07-13T13:26:07;99435.44;;;41.70;21.05
76858;BME280;65830;0.000;0.000;2023-07-13T13:28:56;99428.69;;;41.99;18.41
76858;BME280;65830;0.000;0.000;2023-07-13T13:32:03;99427.66;;;42.48;17.73
76858;BME280;65830;0.000;0.000;2023-07-13T13:34:45;99416.78;;;42.74;18.97
76858;BME280;65830;0.000;0.000;2023-07-13T13:37:20;99418.28;;;42.88;20.01
76858;BME280;65830;0.000;0.000;2023-07-13T13:40:11;99415.19;;;43.09;22.63
76858;BME280;65830;0.000;0.000;2023-07-13T13:42:44;99419.50;;;43.22;17.54
76858;BME280;65830;0.000;0.000;2023-07-13T13:45:24;99423.69;;;43.48;17.40
76858;BME280;65830;0.000;0.000;2023-07-13T13:47:57;99412.78;;;43.62;18.81
76858;BME280;65830;0.000;0.000;2023-07-13T13:50:32;99403.81;;;43.53;22.88
76858;BME280;65830;0.000;0.000;2023-07-13T13:53:09;99405.56;;;43.61;18.21
76858;BME280;65830;0.000;0.000;2023-07-13T13:55:43;99402.50;;;43.66;18.42
76858;BME280;65830;0.000;0.000;2023-07-13T13:58:27;99413.53;;;43.78;20.11
76858;BME280;65830;0.000;0.000;2023-07-13T14:00:56;99409.28;;;43.85;16.89
76858;BME280;65830;0.000;0.000;2023-07-13T14:03:32;99407.66;;;43.83;18.84
76858;BME280;65830;0.000;0.000;2023-07-13T14:06:07;99403.56;;;43.77;18.37
76858;BME280;65830;0.000;0.000;2023-07-13T14:08:47;99407.59;;;43.80;17.72
76858;BME280;65830;0.000;0.000;2023-07-13T14:11:21;99400.59;;;43.90;17.79
76858;BME280;65830;0.000;0.000;2023-07-13T14:13:58;99386.56;;;43.86;17.19
76858;BME280;65830;0.000;0.000;2023-07-13T14:16:40;99392.34;;;43.97;16.11
76858;BME280;65830;0.000;0.000;2023-07-13T14:19:51;99394.94;;;43.86;17.96
76858;BME280;65830;0.000;0.000;2023-07-13T14:22:30;99377.22;;;43.78;16.13
76858;BME280;65830;0.000;0.000;2023-07-13T14:25:01;99381.66;;;43.79;17.31
76858;BME280;65830;0.000;0.000;2023-07-13T14:27:48;99379.88;;;43.52;16.67
76858;BME280;65830;0.000;0.000;2023-07-13T14:30:18;99378.31;;;43.35;17.99
76858;BME280;65830;0.000;0.000;2023-07-13T14:32:51;99384.00;;;43.22;17.55
76858;BME280;65830;0.000;0.000;2023-07-13T14:35:35;99381.34;;;43.10;17.97
76858;BME280;65830;0.000;0.000;2023-07-13T14:38:13;99376.41;;;43.03;18.16
76858;BME280;65830;0.000;0.000;2023-07-13T14:40:42;99371.81;;;42.95;17.01
76858;BME280;65830;0.000;0.000;2023-07-13T14:43:37;99381.47;;;42.82;17.97
76858;BME280;65830;0.000;0.000;2023-07-13T14:46:09;99374.28;;;42.81;19.34
76858;BME280;65830;0.000;0.000;2023-07-13T14:52:13;99364.28;;;42.80;18.08
76858;BME280;65830;0.000;0.000;2023-07-13T14:54:53;99371.78;;;42.76;18.24
76858;BME280;65830;0.000;0.000;2023-07-13T14:57:30;99363.13;;;42.65;19.18
76858;BME280;65830;0.000;0.000;2023-07-13T15:00:00;99359.53;;;42.64;18.37
76858;BME280;65830;0.000;0.000;2023-07-13T15:02:38;99361.00;;;42.58;17.11
76858;BME280;65830;0.000;0.000;2023-07-13T15:05:17;99358.28;;;42.46;18.20
76858;BME280;65830;0.000;0.000;2023-07-13T15:08:17;99348.75;;;42.47;17.08
76858;BME280;65830;0.000;0.000;2023-07-13T15:10:57;99355.22;;;42.51;17.37
76858;BME280;65830;0.000;0.000;2023-07-13T15:13:33;99348.94;;;42.54;17.93
76858;BME280;65830;0.000;0.000;2023-07-13T15:16:53;99351.78;;;42.42;17.94
76858;BME280;65830;0.000;0.000;2023-07-13T15:19:51;99356.66;;;42.29;18.31
76858;BME280;65830;0.000;0.000;2023-07-13T15:28:23;99352.72;;;42.02;17.93
76858;BME280;65830;0.000;0.000;2023-07-13T15:30:59;99349.22;;;41.89;18.38
76858;BME280;65830;0.000;0.000;2023-07-13T15:33:43;99349.91;;;41.70;17.61
76858;BME280;65830;0.000;0.000;2023-07-13T15:36:33;99346.00;;;41.46;18.64
76858;BME280;65830;0.000;0.000;2023-07-13T15:39:15;99352.25;;;41.27;18.43
76858;BME280;65830;0.000;0.000;2023-07-13T15:41:53;99345.75;;;41.11;19.57
76858;BME280;65830;0.000;0.000;2023-07-13T15:44:28;99348.09;;;40.97;19.28
76858;BME280;65830;0.000;0.000;2023-07-13T15:47:08;99342.69;;;40.88;18.87
76858;BME280;65830;0.000;0.000;2023-07-13T15:49:46;99348.25;;;40.76;19.18
76858;BME280;65830;0.000;0.000;2023-07-13T15:52:37;99352.06;;;40.59;19.21
76858;BME280;65830;0.000;0.000;2023-07-13T15:55:21;99344.97;;;40.49;19.46
76858;BME280;65830;0.000;0.000;2023-07-13T15:57:54;99351.47;;;40.41;19.61
76858;BME280;65830;0.000;0.000;2023-07-13T16:00:48;99358.97;;;40.28;19.40
76858;BME280;65830;0.000;0.000;2023-07-13T16:03:39;99354.41;;;40.11;20.97
76858;BME280;65830;0.000;0.000;2023-07-13T16:06:23;99349.03;;;39.94;20.46
76858;BME280;65830;0.000;0.000;2023-07-13T16:09:00;99356.16;;;39.82;21.81
76858;BME280;65830;0.000;0.000;2023-07-13T16:11:32;99355.31;;;39.69;21.95
76858;BME280;65830;0.000;0.000;2023-07-13T16:14:15;99354.47;;;39.57;20.77
76858;BME280;65830;0.000;0.000;2023-07-13T16:17:14;99361.34;;;39.50;22.29
76858;BME280;65830;0.000;0.000;2023-07-13T16:19:59;99348.03;;;39.44;21.58